createdAt,value
2024-04-24T00:04:51.082Z,4.22
2024-04-24T00:24:52.326Z,3.78
2024-04-24T00:44:53.537Z,3.45
2024-04-24T01:04:54.788Z,2.92
2024-04-24T01:24:56.026Z,2.48
2024-04-24T01:44:57.203Z,2.17
2024-04-24T02:04:58.428Z,2.17
2024-04-24T02:24:59.633Z,2.23
2024-04-24T02:45:00.862Z,2.25
2024-04-24T03:05:02.199Z,2.35
2024-04-24T03:25:03.479Z,2.47
2024-04-24T03:45:04.673Z,2.56
2024-04-24T04:05:05.890Z,2.73
2024-04-24T04:25:07.102Z,3.03
2024-04-24T04:45:08.295Z,3.35
2024-04-24T05:05:09.529Z,3.73
2024-04-24T05:25:10.774Z,4.45
2024-04-24T05:45:12.047Z,5.35
2024-04-24T06:05:13.358Z,6.45
2024-04-24T06:25:14.770Z,7.44
2024-04-24T06:45:15.963Z,7.88
2024-04-24T07:05:17.184Z,8.57
2024-04-24T07:25:18.577Z,9.08
2024-04-24T07:45:19.761Z,9.32
2024-04-24T08:05:20.989Z,9.74
2024-04-24T08:25:22.221Z,10.43
2024-04-24T08:45:23.406Z,10.95
2024-04-24T09:05:24.934Z,11.98
2024-04-24T09:25:26.112Z,12.72
2024-04-24T09:45:27.416Z,12.81
2024-04-24T10:05:33.501Z,12.65
2024-04-24T10:25:40.425Z,12.77
2024-04-24T10:45:42.812Z,13.19
2024-04-24T11:05:44.593Z,13.21
2024-04-24T11:25:52.100Z,13.15
2024-04-24T11:45:59.238Z,13.42
2024-04-24T12:06:00.427Z,13.86
2024-04-24T12:26:01.648Z,14.21
2024-04-24T12:46:02.926Z,14.72
2024-04-24T13:06:04.122Z,14.94
2024-04-24T13:26:05.373Z,14.31
2024-04-24T13:46:06.619Z,14.42
2024-04-24T14:06:07.908Z,15.02
2024-04-24T14:26:09.109Z,14.76
2024-04-24T14:46:10.321Z,13.81
2024-04-24T15:06:11.883Z,13.14
2024-04-24T15:26:13.115Z,12.62
2024-04-24T15:46:14.425Z,12.61
2024-04-24T16:06:15.619Z,12.31
2024-04-24T16:26:16.839Z,11.82
2024-04-24T16:46:18.111Z,11.43
2024-04-24T17:06:19.301Z,11.21
2024-04-24T17:26:29.670Z,10.99
2024-04-24T17:46:34.962Z,10.80
2024-04-24T18:06:36.243Z,10.18
2024-04-24T18:26:37.472Z,9.65
2024-04-24T18:46:38.863Z,9.09
2024-04-24T19:06:40.127Z,8.52
2024-04-24T19:26:41.347Z,7.98
2024-04-24T19:46:42.655Z,7.67
2024-04-24T20:06:43.843Z,7.54
2024-04-24T20:26:45.079Z,7.57
2024-04-24T20:46:46.363Z,7.54
2024-04-24T21:06:47.634Z,7.53
2024-04-24T21:26:48.836Z,7.59
2024-04-24T21:46:50.081Z,7.37
2024-04-24T22:06:51.322Z,7.20
2024-04-24T22:26:52.630Z,7.08
2024-04-24T22:46:53.843Z,7.07
2024-04-24T23:06:55.050Z,6.90
2024-04-24T23:26:56.294Z,6.67
2024-04-24T23:46:57.496Z,6.52
